Time;durP1;ratioP1;P1;durP2;ratioP2;P2;SDS_P1;SDS_P2;PMS_P1;PMS_P2;Temp;Humidity;BMP_temperature;BMP_pressure;BME280_temperature;BME280_humidity;BME280_pressure;Samples;Min_cycle;Max_cycle;Signal;HPM_P1;HPM_P2
2023/02/04 00:01:07;;;;;;;7.80;1.80;;;12.40;73.80;;;;;;4923193;28;20077;-88
2023/02/04 00:03:33;;;;;;;3.33;1.30;;;12.40;73.80;;;;;;4969892;28;20457;-89
2023/02/04 00:05:59;;;;;;;2.97;1.15;;;12.40;73.80;;;;;;4945626;28;20135;-88
2023/02/04 00:08:25;;;;;;;3.78;1.52;;;12.40;73.80;;;;;;4935496;29;20552;-89
2023/02/04 00:10:50;;;;;;;2.72;1.13;;;12.40;73.90;;;;;;4951370;29;20562;-90
2023/02/04 00:13:16;;;;;;;3.65;1.10;;;12.30;73.70;;;;;;4949166;29;20035;-91
2023/02/04 00:15:42;;;;;;;4.07;1.20;;;12.40;73.90;;;;;;4950335;28;20547;-87
2023/02/04 00:18:08;;;;;;;5.03;1.10;;;12.40;73.90;;;;;;4960724;28;20347;-92
2023/02/04 00:20:34;;;;;;;3.42;1.02;;;12.30;73.70;;;;;;4948648;29;20031;-85
2023/02/04 00:23:00;;;;;;;2.72;0.93;;;12.30;73.70;;;;;;4928016;29;20555;-81
2023/02/04 00:25:26;;;;;;;3.80;1.05;;;12.30;73.70;;;;;;4933697;29;20856;-91
2023/02/04 00:27:52;;;;;;;3.20;1.08;;;12.30;73.70;;;;;;4953192;28;20035;-93
2023/02/04 00:30:18;;;;;;;3.85;1.45;;;12.30;73.70;;;;;;4946723;29;20122;-93
2023/02/04 00:32:44;;;;;;;2.17;0.88;;;12.30;73.70;;;;;;4936870;29;20062;-92
2023/02/04 00:35:11;;;;;;;9.05;1.50;;;12.30;73.80;;;;;;4936852;29;20031;-94
2023/02/04 00:37:37;;;;;;;2.95;0.93;;;12.20;73.60;;;;;;4954345;28;20028;-90
2023/02/04 00:40:03;;;;;;;2.08;0.90;;;12.20;73.60;;;;;;4947014;29;20374;-89
2023/02/04 00:42:29;;;;;;;2.70;0.85;;;12.20;73.60;;;;;;4933582;29;20043;-89
2023/02/04 00:44:57;;;;;;;5.22;1.10;;;12.20;73.60;;;;;;4951297;28;20043;-91
2023/02/04 00:47:23;;;;;;;2.15;0.90;;;12.20;73.60;;;;;;4921749;29;20042;-89
2023/02/04 00:49:49;;;;;;;2.35;0.90;;;12.20;73.60;;;;;;4935194;28;20066;-89
2023/02/04 00:52:15;;;;;;;3.30;0.80;;;12.20;73.60;;;;;;4936502;29;20031;-94
2023/02/04 00:54:41;;;;;;;1.25;0.70;;;12.20;73.60;;;;;;4953111;28;20134;-92
2023/02/04 00:57:07;;;;;;;2.75;1.05;;;12.20;73.70;;;;;;4947794;29;20047;-82
2023/02/04 00:59:32;;;;;;;2.22;1.05;;;12.10;73.60;;;;;;4928246;29;20116;-83
2023/02/04 01:01:59;;;;;;;2.80;0.93;;;12.10;73.50;;;;;;4939126;28;20369;-82
2023/02/04 01:04:26;;;;;;;2.88;0.70;;;12.10;73.50;;;;;;4942245;28;20035;-81
2023/02/04 01:06:53;;;;;;;3.33;0.88;;;12.20;73.70;;;;;;4947421;28;20047;-82
2023/02/04 01:09:19;;;;;;;5.43;1.05;;;12.10;73.50;;;;;;4930920;28;20086;-82
2023/02/04 01:11:45;;;;;;;2.65;0.90;;;12.10;73.50;;;;;;4941053;29;20036;-83
2023/02/04 01:14:11;;;;;;;3.00;0.80;;;12.10;73.50;;;;;;4944816;28;20044;-82
2023/02/04 01:16:38;;;;;;;3.17;0.68;;;12.10;73.50;;;;;;4947493;29;20077;-83
2023/02/04 01:19:04;;;;;;;2.80;0.68;;;12.10;73.50;;;;;;4938584;28;20062;-84
2023/02/04 01:21:30;;;;;;;2.22;0.73;;;12.00;73.30;;;;;;4954526;28;20035;-85
2023/02/04 01:23:56;;;;;;;2.05;0.70;;;12.00;73.30;;;;;;4931802;28;20102;-85
2023/02/04 01:26:22;;;;;;;1.25;1.15;;;12.00;73.90;;;;;;4946819;28;20070;-83
2023/02/04 01:28:48;;;;;;;2.65;0.98;;;12.00;73.30;;;;;;4942917;29;20090;-85
2023/02/04 01:31:15;;;;;;;1.10;0.40;;;12.00;73.30;;;;;;4945056;29;20035;-84
2023/02/04 01:33:41;;;;;;;1.38;0.60;;;11.90;73.20;;;;;;4947591;28;20031;-84
2023/02/04 01:36:07;;;;;;;1.88;0.70;;;11.90;73.20;;;;;;4941069;28;20042;-83
2023/02/04 01:38:34;;;;;;;1.77;0.77;;;11.90;73.20;;;;;;4947684;28;20031;-84
2023/02/04 01:41:01;;;;;;;3.47;1.30;;;11.90;73.20;;;;;;4943562;29;20053;-86
2023/02/04 01:43:27;;;;;;;4.00;0.77;;;11.90;73.20;;;;;;4932753;29;20474;-85
2023/02/04 01:45:55;;;;;;;1.92;0.73;;;11.90;73.20;;;;;;4941974;29;20079;-85
2023/02/04 01:48:22;;;;;;;2.65;0.80;;;11.90;73.70;;;;;;4936240;29;20039;-84
2023/02/04 01:50:51;;;;;;;3.38;0.60;;;11.90;73.20;;;;;;4942020;28;20043;-85
2023/02/04 01:53:22;;;;;;;1.30;0.70;;;11.80;73.00;;;;;;4943564;28;20546;-84
2023/02/04 01:55:48;;;;;;;2.55;1.17;;;11.80;73.60;;;;;;4954455;28;20053;-84
2023/02/04 01:58:15;;;;;;;2.60;1.08;;;11.80;73.10;;;;;;4941397;28;20067;-83
2023/02/04 02:00:41;;;;;;;1.85;1.00;;;11.80;73.10;;;;;;4948855;28;20049;-84
2023/02/04 02:03:09;;;;;;;3.08;1.77;;;11.80;73.10;;;;;;4950276;28;20090;-84
2023/02/04 02:05:54;;;;;;;3.08;0.85;;;11.70;73.00;;;;;;4951813;28;20066;-85
2023/02/04 02:08:20;;;;;;;3.22;0.70;;;11.70;73.00;;;;;;4940714;28;20036;-83
2023/02/04 02:10:48;;;;;;;1.67;0.82;;;11.70;73.00;;;;;;4956143;28;20042;-83
2023/02/04 02:13:16;;;;;;;4.00;1.10;;;11.70;73.00;;;;;;4954813;28;20066;-84
2023/02/04 02:15:43;;;;;;;4.05;1.00;;;11.70;73.00;;;;;;4946315;28;20043;-83
2023/02/04 02:18:09;;;;;;;3.25;1.15;;;11.60;72.80;;;;;;4941492;28;20353;-84
2023/02/04 02:20:36;;;;;;;2.97;0.70;;;11.60;72.80;;;;;;4953605;28;20074;-82
2023/02/04 02:23:20;;;;;;;2.47;0.80;;;11.60;72.80;;;;;;4949694;28;20137;-83
2023/02/04 02:25:47;;;;;;;0.85;0.70;;;11.60;72.90;;;;;;4958627;28;20054;-82
2023/02/04 02:28:15;;;;;;;2.00;1.27;;;11.60;72.90;;;;;;4932407;28;20169;-82
2023/02/04 02:30:46;;;;;;;1.30;0.80;;;11.60;72.90;;;;;;4960117;28;20398;-82
2023/02/04 02:33:14;;;;;;;2.35;0.80;;;11.60;72.90;;;;;;4933958;29;20031;-81
2023/02/04 02:35:44;;;;;;;2.00;0.90;;;11.60;72.90;;;;;;4957216;28;20027;-81
2023/02/04 02:38:14;;;;;;;3.15;1.08;;;11.60;73.00;;;;;;4938113;29;20042;-81
2023/02/04 02:40:41;;;;;;;3.63;1.05;;;11.50;72.70;;;;;;4929400;29;20098;-81
2023/02/04 02:43:13;;;;;;;3.35;1.02;;;11.50;72.70;;;;;;4943514;29;20054;-82
2023/02/04 02:45:40;;;;;;;;;;;11.50;72.80;;;;;;4935751;29;20579;-83
2023/02/04 02:48:06;;;;;;;2.72;1.63;;;11.50;72.70;;;;;;4947940;29;19993;-84
2023/02/04 02:50:33;;;;;;;2.10;1.00;;;11.50;72.70;;;;;;4939853;28;20035;-84
2023/02/04 02:53:00;;;;;;;1.65;1.10;;;11.40;72.50;;;;;;4937634;28;20039;-82
2023/02/04 02:55:27;;;;;;;4.10;1.30;;;11.50;72.80;;;;;;4942488;29;20118;-81
2023/02/04 02:57:56;;;;;;;1.88;1.50;;;11.40;72.60;;;;;;4944270;29;20392;-82
2023/02/04 03:00:24;;;;;;;4.38;1.50;;;11.40;72.70;;;;;;4936769;29;20179;-83
2023/02/04 03:03:12;;;;;;;2.47;1.25;;;11.40;72.70;;;;;;4947348;29;20042;-83
2023/02/04 03:05:42;;;;;;;3.40;1.40;;;11.40;72.70;;;;;;4943294;29;20043;-83
2023/02/04 03:08:11;;;;;;;3.33;1.17;;;11.40;73.20;;;;;;4948899;29;20047;-83
2023/02/04 03:10:37;;;;;;;2.22;1.27;;;11.40;72.70;;;;;;4945622;29;20087;-84
2023/02/04 03:13:04;;;;;;;2.30;0.95;;;11.40;72.70;;;;;;4938242;29;20039;-84
2023/02/04 03:15:31;;;;;;;3.90;0.95;;;11.30;72.60;;;;;;4944969;29;20090;-83
2023/02/04 03:17:58;;;;;;;3.25;1.63;;;11.30;72.60;;;;;;4944679;29;20074;-83
2023/02/04 03:20:26;;;;;;;4.28;1.33;;;11.30;72.60;;;;;;4940696;29;20168;-83
2023/02/04 03:22:54;;;;;;;5.30;1.80;;;11.30;72.60;;;;;;4942050;28;20027;-83
2023/02/04 03:25:23;;;;;;;2.25;1.00;;;11.30;72.60;;;;;;4924689;29;20047;-83
2023/02/04 03:27:52;;;;;;;2.67;1.05;;;11.30;72.60;;;;;;4943761;29;20036;-83
2023/02/04 03:30:20;;;;;;;2.92;1.52;;;11.30;72.60;;;;;;4931141;28;20047;-83
2023/02/04 03:32:46;;;;;;;2.45;1.00;;;11.20;72.50;;;;;;4953245;28;20043;-82
2023/02/04 03:35:12;;;;;;;4.72;1.05;;;11.30;72.60;;;;;;4945932;28;20435;-82
2023/02/04 03:37:38;;;;;;;3.42;1.65;;;11.30;72.60;;;;;;4951136;28;20062;-82
2023/02/04 03:40:04;;;;;;;4.43;1.08;;;11.20;72.40;;;;;;4947169;29;20027;-81
2023/02/04 03:42:30;;;;;;;3.88;1.67;;;11.20;72.50;;;;;;4941283;29;20047;-81
2023/02/04 03:44:56;;;;;;;4.90;1.30;;;11.20;72.50;;;;;;4951279;29;20372;-82
2023/02/04 03:47:22;;;;;;;4.38;0.88;;;11.20;72.50;;;;;;4949511;29;20587;-81
2023/02/04 03:49:48;;;;;;;4.53;1.33;;;11.20;72.50;;;;;;4949915;29;20143;-81
2023/02/04 03:52:14;;;;;;;2.55;1.13;;;11.20;72.50;;;;;;4951901;28;20054;-83
2023/02/04 03:54:40;;;;;;;3.85;0.77;;;11.20;72.50;;;;;;4933018;29;20039;-82
2023/02/04 03:57:06;;;;;;;4.10;1.98;;;11.20;72.50;;;;;;4944912;29;20591;-83
2023/02/04 03:59:32;;;;;;;1.88;0.80;;;11.20;72.50;;;;;;4939062;29;20028;-82
2023/02/04 04:01:58;;;;;;;2.67;0.80;;;11.10;72.40;;;;;;4949181;29;20059;-83
2023/02/04 04:04:24;;;;;;;5.80;1.08;;;11.20;72.60;;;;;;4950672;29;20074;-83
2023/02/04 04:06:50;;;;;;;2.13;1.02;;;11.10;72.40;;;;;;4952233;28;20043;-82
2023/02/04 04:09:16;;;;;;;4.25;1.30;;;11.10;72.40;;;;;;4948669;29;20035;-83
2023/02/04 04:11:42;;;;;;;2.70;1.10;;;11.10;72.40;;;;;;4949010;29;20031;-83
2023/02/04 04:14:08;;;;;;;2.65;0.93;;;11.10;72.40;;;;;;4951952;28;20031;-82
2023/02/04 04:16:33;;;;;;;2.97;1.10;;;11.10;72.40;;;;;;4949166;29;20031;-84
2023/02/04 04:18:59;;;;;;;4.95;1.10;;;11.10;72.40;;;;;;4949854;28;20038;-82
2023/02/04 04:21:25;;;;;;;1.67;0.55;;;11.10;72.40;;;;;;4950054;29;20039;-83
2023/02/04 04:23:51;;;;;;;4.00;1.38;;;11.10;72.40;;;;;;4949369;29;20050;-82
2023/02/04 04:26:17;;;;;;;3.35;0.82;;;11.10;72.40;;;;;;4945722;29;20113;-83
2023/02/04 04:28:43;;;;;;;3.00;0.85;;;11.10;72.40;;;;;;4949000;29;20044;-81
2023/02/04 04:31:09;;;;;;;1.95;0.85;;;11.10;72.30;;;;;;4951090;28;20138;-82
2023/02/04 04:33:35;;;;;;;3.35;1.10;;;11.00;72.10;;;;;;4950896;28;20427;-82
2023/02/04 04:36:01;;;;;;;2.75;1.23;;;11.00;72.10;;;;;;4948527;28;20039;-82
2023/02/04 04:38:27;;;;;;;4.97;1.65;;;11.00;72.10;;;;;;4951499;28;20039;-81
2023/02/04 04:40:52;;;;;;;5.13;1.00;;;11.00;72.10;;;;;;4944572;29;20456;-82
2023/02/04 04:43:18;;;;;;;1.23;0.80;;;11.00;72.10;;;;;;4944357;28;20399;-80
2023/02/04 04:45:44;;;;;;;5.95;1.20;;;11.00;72.10;;;;;;4929761;29;20800;-81
2023/02/04 04:48:10;;;;;;;3.45;0.80;;;11.00;72.10;;;;;;4943518;29;20050;-81
2023/02/04 04:50:36;;;;;;;2.35;0.82;;;11.00;72.10;;;;;;4950206;29;20576;-82
2023/02/04 04:53:02;;;;;;;3.95;1.00;;;10.90;71.90;;;;;;4940695;28;20027;-82
2023/02/04 04:55:28;;;;;;;3.58;0.80;;;11.00;72.10;;;;;;4943569;29;20039;-82
2023/02/04 04:57:54;;;;;;;4.03;0.98;;;11.00;72.10;;;;;;4943155;29;20160;-82
2023/02/04 05:00:20;;;;;;;2.38;0.73;;;11.00;72.10;;;;;;4938522;29;20027;-82
2023/02/04 05:02:47;;;;;;;2.00;0.98;;;11.00;72.10;;;;;;4947803;29;20043;-82
2023/02/04 05:05:13;;;;;;;4.70;0.90;;;10.90;71.90;;;;;;4948860;29;20122;-80
2023/02/04 05:07:39;;;;;;;5.25;1.30;;;10.90;71.90;;;;;;4948865;29;20039;-81
2023/02/04 05:10:05;;;;;;;2.00;0.95;;;10.90;71.90;;;;;;4946716;29;20047;-81
2023/02/04 05:12:31;;;;;;;2.80;1.08;;;10.90;71.90;;;;;;4950300;28;20039;-81
2023/02/04 05:14:57;;;;;;;2.67;0.98;;;10.90;71.90;;;;;;4947703;29;20051;-81
2023/02/04 05:17:23;;;;;;;2.50;0.98;;;10.90;71.90;;;;;;4949494;29;20114;-81
2023/02/04 05:19:49;;;;;;;4.50;1.27;;;10.90;71.90;;;;;;4942725;29;20035;-82
2023/02/04 05:22:15;;;;;;;1.90;1.10;;;10.80;71.70;;;;;;4950211;28;20039;-81
2023/02/04 05:24:41;;;;;;;3.25;1.00;;;10.90;71.90;;;;;;4948749;29;20039;-81
2023/02/04 05:27:07;;;;;;;4.65;1.00;;;10.90;71.90;;;;;;4948695;29;20130;-81
2023/02/04 05:29:32;;;;;;;2.15;0.70;;;10.90;71.90;;;;;;4940727;28;20526;-81
2023/02/04 05:31:58;;;;;;;3.20;1.08;;;10.90;71.90;;;;;;4951452;28;20118;-82
2023/02/04 05:34:24;;;;;;;3.67;0.90;;;10.90;71.90;;;;;;4950971;28;20039;-82
2023/02/04 05:36:50;;;;;;;2.67;0.77;;;10.90;71.90;;;;;;4946102;28;20093;-81
2023/02/04 05:39:16;;;;;;;3.72;1.40;;;10.90;71.90;;;;;;4938505;29;20042;-82
2023/02/04 05:41:42;;;;;;;4.97;1.65;;;10.80;71.70;;;;;;4930960;29;20086;-82
2023/02/04 05:44:08;;;;;;;5.57;0.98;;;10.80;71.70;;;;;;4948513;29;20082;-82
2023/02/04 05:46:34;;;;;;;3.33;1.17;;;10.80;71.70;;;;;;4948950;29;20523;-81
2023/02/04 05:48:59;;;;;;;6.57;2.08;;;10.80;71.70;;;;;;4943415;29;20047;-81
2023/02/04 05:51:25;;;;;;;4.00;2.35;;;10.90;71.90;;;;;;4942307;28;20040;-82
2023/02/04 05:53:51;;;;;;;3.95;1.02;;;10.80;71.70;;;;;;4945280;28;20066;-84
2023/02/04 05:56:17;;;;;;;2.95;0.90;;;10.80;71.80;;;;;;4942792;29;20046;-83
2023/02/04 05:58:44;;;;;;;5.25;2.25;;;10.80;71.90;;;;;;4941199;28;20024;-84
2023/02/04 06:01:10;;;;;;;2.80;1.40;;;10.80;72.10;;;;;;4941933;28;20032;-85
2023/02/04 06:03:36;;;;;;;6.35;1.13;;;10.90;72.50;;;;;;4944007;29;20425;-83
2023/02/04 06:06:02;;;;;;;4.38;1.23;;;11.00;72.70;;;;;;4942635;29;20086;-80
2023/02/04 06:08:27;;;;;;;4.53;1.55;;;11.00;72.60;;;;;;4944015;28;20031;-84
2023/02/04 06:10:53;;;;;;;4.05;1.00;;;11.00;73.10;;;;;;4925966;29;20027;-80
2023/02/04 06:13:19;;;;;;;2.33;0.90;;;11.00;72.60;;;;;;4943809;28;20507;-84
2023/02/04 06:15:45;;;;;;;9.30;1.50;;;11.00;72.60;;;;;;4944513;28;20337;-81
2023/02/04 06:18:11;;;;;;;9.77;1.20;;;11.00;72.60;;;;;;4942204;29;20047;-81
2023/02/04 06:20:38;;;;;;;2.42;1.27;;;11.10;72.90;;;;;;4940801;29;20048;-81
2023/02/04 06:23:04;;;;;;;4.32;0.98;;;11.10;72.90;;;;;;4942496;29;20047;-93
2023/02/04 06:25:30;;;;;;;5.63;1.10;;;11.30;73.20;;;;;;4925347;29;20484;-90
2023/02/04 06:27:56;;;;;;;5.55;1.13;;;11.40;73.20;;;;;;4944348;29;20046;-89
2023/02/04 06:30:21;;;;;;;3.33;0.88;;;11.50;73.00;;;;;;4918470;29;20042;-89
2023/02/04 06:32:47;;;;;;;6.15;1.10;;;11.50;72.80;;;;;;4934683;29;20046;-89
2023/02/04 06:35:15;;;;;;;4.78;1.23;;;11.60;73.00;;;;;;4949252;28;20027;-90
2023/02/04 06:37:42;;;;;;;2.13;1.30;;;11.60;72.90;;;;;;4946440;28;20047;-90
2023/02/04 06:40:09;;;;;;;4.90;1.23;;;11.70;73.10;;;;;;4945019;29;20090;-92
2023/02/04 06:42:35;;;;;;;5.38;1.80;;;11.70;73.10;;;;;;4952077;28;20431;-90
2023/02/04 06:45:01;;;;;;;3.97;1.45;;;11.70;73.20;;;;;;4939341;29;20032;-87
2023/02/04 06:47:27;;;;;;;6.28;1.63;;;11.70;73.20;;;;;;4942228;29;20070;-84
2023/02/04 06:49:53;;;;;;;4.40;1.90;;;11.80;73.50;;;;;;4946293;29;20483;-84
2023/02/04 06:52:19;;;;;;;4.13;2.28;;;11.80;73.60;;;;;;4944363;28;20039;-81
2023/02/04 06:54:44;;;;;;;4.80;2.03;;;11.80;73.70;;;;;;4942014;29;20046;-82
2023/02/04 06:57:11;;;;;;;4.15;1.95;;;11.90;73.90;;;;;;4943661;28;20050;-84
2023/02/04 06:59:38;;;;;;;5.88;1.80;;;11.90;73.90;;;;;;4934271;28;20062;-80
2023/02/04 07:02:06;;;;;;;3.45;1.65;;;12.00;74.20;;;;;;4935419;29;20043;-83
2023/02/04 07:04:33;;;;;;;3.88;1.20;;;12.00;74.20;;;;;;4942114;28;20032;-82
2023/02/04 07:06:59;;;;;;;3.47;1.17;;;12.00;74.20;;;;;;4939127;29;20046;-79
2023/02/04 07:09:25;;;;;;;7.15;3.10;;;12.10;74.50;;;;;;4940257;28;20077;-80
2023/02/04 07:11:51;;;;;;;4.35;1.42;;;12.10;75.00;;;;;;4945788;29;20043;-79
2023/02/04 07:14:17;;;;;;;4.75;1.77;;;12.30;75.50;;;;;;4942822;29;20114;-79
2023/02/04 07:16:43;;;;;;;3.10;1.10;;;12.50;75.80;;;;;;4940262;29;20043;-79
2023/02/04 07:19:09;;;;;;;4.70;1.48;;;12.70;76.00;;;;;;4943229;29;20027;-78
2023/02/04 07:21:35;;;;;;;2.33;1.25;;;12.90;76.00;;;;;;4939513;29;20050;-79
2023/02/04 07:24:01;;;;;;;2.25;1.20;;;13.10;76.10;;;;;;4945257;29;20415;-80
2023/02/04 07:26:27;;;;;;;4.90;1.45;;;13.30;76.00;;;;;;4944568;28;20075;-78
2023/02/04 07:28:53;;;;;;;3.45;1.30;;;13.40;75.80;;;;;;4940965;29;20122;-79
2023/02/04 07:31:19;;;;;;;4.85;1.65;;;13.60;75.80;;;;;;4943510;28;20499;-80
2023/02/04 07:33:45;;;;;;;3.75;1.42;;;13.70;75.70;;;;;;4945768;29;20023;-78
2023/02/04 07:36:10;;;;;;;3.50;1.33;;;13.80;75.60;;;;;;4943015;28;20091;-78
2023/02/04 07:38:36;;;;;;;2.25;1.35;;;13.90;75.50;;;;;;4939798;29;20035;-81
2023/02/04 07:41:03;;;;;;;3.33;1.23;;;14.00;75.40;;;;;;4946300;28;20050;-79
2023/02/04 07:43:28;;;;;;;2.75;1.20;;;14.10;75.30;;;;;;4946652;28;20428;-80
2023/02/04 07:45:54;;;;;;;4.28;2.17;;;14.20;75.30;;;;;;4936398;28;20142;-82
2023/02/04 07:48:20;;;;;;;2.70;1.60;;;14.20;75.10;;;;;;4936954;28;20030;-81
2023/02/04 07:50:46;;;;;;;5.05;1.60;;;14.30;75.10;;;;;;4937911;28;20566;-80
2023/02/04 07:53:13;;;;;;;5.32;1.75;;;14.40;75.00;;;;;;4944294;29;20043;-81
2023/02/04 07:55:39;;;;;;;2.40;1.50;;;14.40;74.90;;;;;;4944683;29;20094;-81
2023/02/04 07:58:04;;;;;;;4.13;1.40;;;14.50;74.90;;;;;;4944797;28;20051;-78
2023/02/04 08:00:31;;;;;;;1.63;1.30;;;14.50;74.70;;;;;;4934029;29;20118;-81
2023/02/04 08:02:57;;;;;;;2.30;1.08;;;14.50;74.50;;;;;;4946280;28;20166;-81
2023/02/04 08:05:23;;;;;;;1.40;1.30;;;14.60;74.50;;;;;;4945755;29;20085;-82
2023/02/04 08:07:49;;;;;;;3.72;1.73;;;14.60;74.30;;;;;;4945856;29;20126;-82
2023/02/04 08:10:15;;;;;;;5.18;1.48;;;14.60;74.10;;;;;;4940787;29;20573;-82
2023/02/04 08:12:41;;;;;;;3.15;1.73;;;14.70;74.20;;;;;;4946625;28;20035;-81
2023/02/04 08:15:07;;;;;;;4.68;1.40;;;14.80;74.20;;;;;;4947530;28;20023;-81
2023/02/04 08:17:34;;;;;;;5.28;1.38;;;14.70;73.80;;;;;;4944907;28;20054;-81
2023/02/04 08:20:00;;;;;;;4.20;1.63;;;14.80;73.80;;;;;;4940626;28;20028;-81
2023/02/04 08:22:26;;;;;;;4.72;1.65;;;14.80;73.70;;;;;;4946662;28;20369;-78
2023/02/04 08:24:52;;;;;;;3.65;1.58;;;14.80;73.50;;;;;;4937538;28;20063;-81
2023/02/04 08:27:18;;;;;;;2.88;1.33;;;14.80;73.40;;;;;;4946332;28;20650;-78
2023/02/04 08:29:44;;;;;;;3.95;1.60;;;14.90;73.40;;;;;;4939636;28;20050;-78
2023/02/04 08:32:12;;;;;;;5.45;1.88;;;14.90;73.30;;;;;;4946368;28;20038;-78
2023/02/04 08:34:38;;;;;;;2.45;1.25;;;15.00;73.30;;;;;;4945819;28;20542;-77
2023/02/04 08:37:04;;;;;;;2.20;1.65;;;15.10;73.20;;;;;;4937568;28;20488;-80
2023/02/04 08:39:31;;;;;;;4.00;1.52;;;15.10;73.00;;;;;;4943981;29;20171;-78
2023/02/04 08:41:57;;;;;;;2.30;1.33;;;15.20;73.00;;;;;;4942447;29;20043;-78
2023/02/04 08:44:23;;;;;;;4.70;2.00;;;15.20;72.70;;;;;;4944614;28;20114;-76
2023/02/04 08:46:49;;;;;;;4.28;1.30;;;15.30;72.70;;;;;;4943607;29;20126;-80
2023/02/04 08:49:15;;;;;;;4.72;2.20;;;15.30;72.50;;;;;;4945661;28;20082;-77
2023/02/04 08:51:41;;;;;;;3.60;1.48;;;15.30;72.10;;;;;;4950879;28;20109;-77
2023/02/04 08:54:07;;;;;;;4.43;2.13;;;15.30;71.80;;;;;;4954209;28;20050;-78
2023/02/04 08:56:34;;;;;;;4.68;1.60;;;15.20;71.40;;;;;;4934473;28;20069;-79
2023/02/04 08:59:00;;;;;;;2.78;1.23;;;15.10;71.10;;;;;;4945732;28;20127;-79
2023/02/04 09:01:26;;;;;;;4.85;1.88;;;15.00;71.00;;;;;;4942805;28;20499;-78
2023/02/04 09:03:52;;;;;;;5.80;2.63;;;14.90;70.80;;;;;;4945952;28;20027;-78
2023/02/04 09:06:18;;;;;;;2.38;1.60;;;14.70;70.60;;;;;;4945915;28;20055;-83
2023/02/04 09:08:44;;;;;;;4.40;1.77;;;14.60;70.40;;;;;;4943435;29;20086;-79
2023/02/04 09:11:11;;;;;;;7.03;2.67;;;14.50;70.50;;;;;;4941621;28;20039;-80
2023/02/04 09:13:38;;;;;;;2.63;1.70;;;14.40;70.80;;;;;;4946522;28;20039;-80
2023/02/04 09:16:04;;;;;;;4.50;1.73;;;14.50;71.30;;;;;;4946106;28;20491;-83
2023/02/04 09:18:31;;;;;;;3.40;2.30;;;14.50;71.40;;;;;;4944190;29;20063;-83
2023/02/04 09:20:58;;;;;;;3.63;1.88;;;14.60;71.50;;;;;;4937305;28;20572;-80
2023/02/04 09:23:24;;;;;;;3.72;1.58;;;14.70;71.50;;;;;;4935182;28;20256;-81
2023/02/04 09:25:50;;;;;;;7.35;2.45;;;14.80;72.10;;;;;;4942744;29;20047;-80
2023/02/04 09:28:16;;;;;;;2.60;1.40;;;14.80;71.40;;;;;;4940804;28;20043;-80
2023/02/04 09:30:44;;;;;;;3.30;1.20;;;14.90;71.40;;;;;;4941113;29;20475;-81
2023/02/04 09:33:12;;;;;;;5.53;1.38;;;14.90;71.20;;;;;;4936579;29;20415;-81
2023/02/04 09:35:38;;;;;;;3.10;1.27;;;15.00;71.10;;;;;;4936575;28;20094;-80
2023/02/04 09:38:04;;;;;;;7.35;2.83;;;15.10;71.10;;;;;;4937348;28;20042;-81
2023/02/04 09:40:36;;;;;;;4.63;2.40;;;15.20;71.10;;;;;;4942691;29;20035;-80
2023/02/04 09:43:04;;;;;;;2.37;1.43;;;15.30;71.00;;;;;;4944733;28;20043;-80
2023/02/04 09:45:33;;;;;;;3.92;1.65;;;15.40;71.00;;;;;;4928546;29;20056;-79
2023/02/04 09:48:02;;;;;;;2.10;1.40;;;15.50;70.90;;;;;;4936437;28;20031;-82
2023/02/04 09:50:30;;;;;;;2.50;1.50;;;15.50;70.60;;;;;;4943124;28;21016;-79
2023/02/04 09:53:00;;;;;;;3.35;1.50;;;15.60;70.60;;;;;;4944696;28;20673;-84
2023/02/04 09:55:31;;;;;;;2.85;1.50;;;15.70;70.50;;;;;;4943033;29;20031;-83
2023/02/04 09:57:57;;;;;;;2.25;1.55;;;15.70;70.30;;;;;;4932827;28;20044;-83
2023/02/04 10:00:26;;;;;;;2.50;1.13;;;15.80;70.30;;;;;;4943362;29;20043;-82
2023/02/04 10:02:52;;;;;;;2.28;1.30;;;15.90;70.20;;;;;;4946012;28;20086;-83
2023/02/04 10:05:26;;;;;;;3.08;1.35;;;16.00;70.20;;;;;;4955400;28;20031;-85
2023/02/04 10:07:52;;;;;;;3.55;1.50;;;16.00;70.00;;;;;;4943825;28;20043;-89
2023/02/04 10:10:21;;;;;;;2.65;1.45;;;16.00;69.70;;;;;;4943063;29;20034;-89
2023/02/04 10:12:48;;;;;;;4.55;1.60;;;16.10;69.70;;;;;;4945940;28;20039;-88
2023/02/04 10:15:18;;;;;;;3.55;1.80;;;16.10;69.50;;;;;;4946375;28;20150;-88
2023/02/04 10:17:50;;;;;;;3.53;1.27;;;16.10;69.40;;;;;;4954685;28;20070;-88
2023/02/04 10:20:21;;;;;;;3.67;2.00;;;16.20;69.40;;;;;;4937328;28;20051;-88
2023/02/04 10:22:49;;;;;;;3.17;1.48;;;16.20;69.10;;;;;;4944697;29;20530;-88
2023/02/04 10:25:18;;;;;;;3.45;1.45;;;16.30;69.20;;;;;;4944671;28;20122;-85
2023/02/04 10:27:57;;;;;;;1.98;1.40;;;16.30;69.00;;;;;;4942100;28;20118;-86
2023/02/04 10:30:32;;;;;;;3.95;1.70;;;16.30;68.80;;;;;;4938965;29;20114;-85
2023/02/04 10:32:59;;;;;;;3.97;1.65;;;16.30;68.70;;;;;;4944431;29;20043;-87
2023/02/04 10:35:25;;;;;;;3.63;1.88;;;16.30;68.60;;;;;;4943271;29;20038;-87
2023/02/04 10:38:05;;;;;;;4.18;1.40;;;16.40;68.60;;;;;;4943688;28;20511;-82
2023/02/04 10:40:34;;;;;;;3.28;1.40;;;16.40;68.90;;;;;;4953514;28;20039;-84
2023/02/04 10:43:10;;;;;;;2.75;1.42;;;16.40;68.30;;;;;;4926366;29;20032;-84
2023/02/04 10:45:36;;;;;;;4.95;1.85;;;16.50;68.30;;;;;;4933569;28;20146;-85
2023/02/04 10:48:03;;;;;;;4.78;1.80;;;16.50;68.30;;;;;;4933445;28;20115;-84
2023/02/04 10:50:29;;;;;;;2.75;1.48;;;16.60;68.30;;;;;;4944056;28;20568;-78
2023/02/04 10:55:51;;;;;;;4.13;1.45;;;16.60;67.90;;;;;;4942507;28;20439;-79
2023/02/04 10:58:24;;;;;;;4.00;1.20;;;16.70;67.90;;;;;;4942092;28;20032;-79
2023/02/04 11:00:50;;;;;;;;;;;16.70;67.70;;;;;;4952195;28;20061;-80
2023/02/04 11:03:24;;;;;;;2.40;1.20;;;16.70;67.70;;;;;;4944080;28;19917;-80
2023/02/04 11:05:52;;;;;;;5.55;1.60;;;16.80;67.80;;;;;;4922761;29;20379;-81
2023/02/04 11:08:18;;;;;;;2.42;1.48;;;16.80;67.70;;;;;;4942721;28;20039;-79
2023/02/04 11:10:44;;;;;;;4.45;1.55;;;16.90;67.70;;;;;;4936536;28;20343;-80
2023/02/04 11:13:37;;;;;;;1.85;1.20;;;16.80;67.40;;;;;;4950813;28;20034;-77
2023/02/04 11:16:11;;;;;;;2.22;1.13;;;16.90;67.30;;;;;;4944806;28;20042;-80
2023/02/04 11:18:51;;;;;;;3.35;1.02;;;16.90;67.20;;;;;;4950464;28;20109;-78
2023/02/04 11:21:27;;;;;;;1.48;1.25;;;16.90;67.00;;;;;;4931060;29;20474;-84
2023/02/04 11:24:10;;;;;;;2.05;1.15;;;16.90;66.80;;;;;;4942742;28;20035;-84
2023/02/04 11:26:39;;;;;;;5.47;1.20;;;17.00;66.90;;;;;;4935486;29;20086;-86
2023/02/04 11:29:05;;;;;;;2.13;1.23;;;17.00;66.90;;;;;;4951530;28;20050;-85
2023/02/04 11:31:31;;;;;;;2.63;1.10;;;17.00;66.80;;;;;;4954495;28;20559;-85
2023/02/04 11:34:15;;;;;;;3.67;1.40;;;17.00;66.70;;;;;;4944439;28;20466;-85
2023/02/04 11:37:00;;;;;;;3.53;1.48;;;17.10;66.60;;;;;;4941771;28;20599;-83
2023/02/04 11:39:36;;;;;;;3.35;1.20;;;17.10;66.40;;;;;;4941364;28;20391;-78
2023/02/04 11:42:14;;;;;;;3.60;1.10;;;17.20;66.50;;;;;;4940660;28;20043;-79
2023/02/04 11:44:40;;;;;;;1.63;1.20;;;17.20;66.40;;;;;;4943057;29;20035;-79
2023/02/04 11:47:08;;;;;;;2.30;0.98;;;17.20;66.30;;;;;;4936335;28;20050;-77
2023/02/04 11:49:36;;;;;;;1.50;1.17;;;17.20;66.10;;;;;;4947189;28;20062;-78
2023/02/04 11:52:09;;;;;;;4.20;1.55;;;17.30;66.10;;;;;;4945046;28;20074;-75
2023/02/04 11:54:35;;;;;;;2.03;1.20;;;17.20;65.70;;;;;;4948168;28;20031;-78
2023/02/04 11:57:02;;;;;;;5.43;1.92;;;17.20;65.60;;;;;;4944652;28;20042;-77
2023/02/04 11:59:28;;;;;;;3.30;1.80;;;17.10;65.30;;;;;;4943677;28;20042;-77
2023/02/04 12:02:19;;;;;;;3.38;1.60;;;17.10;65.10;;;;;;4938445;28;20043;-77
2023/02/04 12:05:12;;;;;;;5.68;1.90;;;16.90;64.60;;;;;;4945957;28;20050;-78
2023/02/04 12:07:38;;;;;;;2.78;1.90;;;16.80;64.50;;;;;;4943124;28;20047;-77
2023/02/04 12:10:24;;;;;;;5.20;2.03;;;16.70;65.10;;;;;;4945175;28;20063;-77
2023/02/04 12:12:57;;;;;;;4.22;2.53;;;16.60;64.10;;;;;;4950386;28;20034;-78
2023/02/04 12:15:31;;;;;;;5.10;2.05;;;16.60;64.20;;;;;;4958808;28;20030;-78
2023/02/04 12:18:08;;;;;;;3.90;2.20;;;16.50;64.00;;;;;;4933756;29;20143;-78
2023/02/04 12:20:35;;;;;;;4.75;2.50;;;16.40;63.60;;;;;;4930629;28;20558;-77
2023/02/04 12:23:01;;;;;;;5.07;2.95;;;16.30;63.60;;;;;;4961770;28;20058;-77
2023/02/04 12:25:27;;;;;;;3.88;2.67;;;16.30;63.60;;;;;;4949383;28;20164;-77
2023/02/04 12:27:54;;;;;;;3.65;2.25;;;16.20;63.40;;;;;;4943098;28;20077;-76
2023/02/04 12:30:22;;;;;;;3.20;2.10;;;16.20;63.50;;;;;;4944576;28;20050;-76
2023/02/04 12:32:48;;;;;;;5.75;2.75;;;16.10;63.30;;;;;;4952887;28;20126;-76
2023/02/04 12:35:14;;;;;;;3.35;2.25;;;16.10;63.30;;;;;;4951792;28;20133;-76
2023/02/04 12:37:40;;;;;;;3.47;2.22;;;16.00;63.20;;;;;;4945844;28;20035;-75
2023/02/04 12:40:07;;;;;;;2.95;2.10;;;15.90;63.00;;;;;;4943090;28;20035;-77
2023/02/04 12:42:33;;;;;;;7.38;2.13;;;15.90;63.40;;;;;;4942486;28;20031;-75
2023/02/04 12:44:59;;;;;;;3.03;2.20;;;15.90;63.00;;;;;;4943373;28;20027;-77
2023/02/04 12:47:26;;;;;;;4.50;2.72;;;15.80;62.80;;;;;;4929443;28;20059;-76
2023/02/04 12:49:52;;;;;;;6.18;2.50;;;15.80;62.80;;;;;;4943552;28;20459;-76
2023/02/04 12:52:17;;;;;;;2.97;2.20;;;15.70;62.60;;;;;;4956209;28;20046;-73